Aviation Digital Data Service (ADDS)

Output produced by METARs form (1157 UTC 26 March 2019)
found at http://www.aviationweather.gov/metar/data/
 
TKPK 261135Z 2612/2712 07015KT P6SM VCSH SCT018 SCT045 
     FM261400 10016KT P6SM FEW020 AMD NOT SKED 2702/2711